sensor_id;sensor_type;location;lat;lon;timestamp;temperature;humidity
939;DHT22;456;53.584;9.968;2023-02-21T00:01:49;16.40;28.50
939;DHT22;456;53.584;9.968;2023-02-21T00:04:33;16.40;28.70
939;DHT22;456;53.584;9.968;2023-02-21T00:07:17;16.40;28.50
939;DHT22;456;53.584;9.968;2023-02-21T00:10:01;16.40;28.60
939;DHT22;456;53.584;9.968;2023-02-21T00:12:46;16.40;28.60
939;DHT22;456;53.584;9.968;2023-02-21T00:15:30;16.40;28.50
939;DHT22;456;53.584;9.968;2023-02-21T00:18:14;16.40;28.60
939;DHT22;456;53.584;9.968;2023-02-21T00:20:58;16.40;28.70
939;DHT22;456;53.584;9.968;2023-02-21T00:23:42;16.40;28.90
939;DHT22;456;53.584;9.968;2023-02-21T00:26:25;16.40;28.80
939;DHT22;456;53.584;9.968;2023-02-21T00:29:09;16.40;28.60
939;DHT22;456;53.584;9.968;2023-02-21T00:31:54;16.40;28.70
939;DHT22;456;53.584;9.968;2023-02-21T00:34:38;16.40;28.80
939;DHT22;456;53.584;9.968;2023-02-21T00:37:22;16.40;28.70
939;DHT22;456;53.584;9.968;2023-02-21T00:40:09;16.30;28.80
939;DHT22;456;53.584;9.968;2023-02-21T00:42:53;16.40;29.00
939;DHT22;456;53.584;9.968;2023-02-21T00:45:38;16.40;29.00
939;DHT22;456;53.584;9.968;2023-02-21T00:48:22;16.30;29.00
939;DHT22;456;53.584;9.968;2023-02-21T00:51:07;16.30;29.10
939;DHT22;456;53.584;9.968;2023-02-21T00:53:52;16.30;29.10
939;DHT22;456;53.584;9.968;2023-02-21T00:56:36;16.30;29.10
939;DHT22;456;53.584;9.968;2023-02-21T00:59:21;16.30;29.10
939;DHT22;456;53.584;9.968;2023-02-21T01:02:05;16.30;29.10
939;DHT22;456;53.584;9.968;2023-02-21T01:04:49;16.30;29.10
939;DHT22;456;53.584;9.968;2023-02-21T01:07:33;16.30;29.10
939;DHT22;456;53.584;9.968;2023-02-21T01:10:17;16.30;29.10
939;DHT22;456;53.584;9.968;2023-02-21T01:13:01;16.30;29.10
939;DHT22;456;53.584;9.968;2023-02-21T01:15:45;16.30;29.00
939;DHT22;456;53.584;9.968;2023-02-21T01:18:29;16.30;29.10
939;DHT22;456;53.584;9.968;2023-02-21T01:21:14;16.30;29.10
939;DHT22;456;53.584;9.968;2023-02-21T01:23:59;16.30;29.10
939;DHT22;456;53.584;9.968;2023-02-21T01:26:43;16.30;29.30
939;DHT22;456;53.584;9.968;2023-02-21T01:29:27;16.30;29.30
939;DHT22;456;53.584;9.968;2023-02-21T01:32:11;16.30;29.30
939;DHT22;456;53.584;9.968;2023-02-21T01:34:55;16.30;29.40
939;DHT22;456;53.584;9.968;2023-02-21T01:37:40;16.30;29.30
939;DHT22;456;53.584;9.968;2023-02-21T01:40:25;16.30;29.40
939;DHT22;456;53.584;9.968;2023-02-21T01:43:21;16.30;29.40
939;DHT22;456;53.584;9.968;2023-02-21T01:46:11;16.30;29.50
939;DHT22;456;53.584;9.968;2023-02-21T01:48:56;16.30;29.40
939;DHT22;456;53.584;9.968;2023-02-21T01:51:41;16.30;29.40
939;DHT22;456;53.584;9.968;2023-02-21T01:54:35;16.30;29.40
939;DHT22;456;53.584;9.968;2023-02-21T01:57:21;16.30;29.70
939;DHT22;456;53.584;9.968;2023-02-21T02:00:08;16.30;29.50
939;DHT22;456;53.584;9.968;2023-02-21T02:05:46;16.30;29.60
939;DHT22;456;53.584;9.968;2023-02-21T02:08:32;16.30;29.40
939;DHT22;456;53.584;9.968;2023-02-21T02:17:36;16.30;29.50
939;DHT22;456;53.584;9.968;2023-02-21T02:37:22;16.30;29.80
939;DHT22;456;53.584;9.968;2023-02-21T02:42:46;16.20;29.70
939;DHT22;456;53.584;9.968;2023-02-21T02:45:41;16.20;29.70
939;DHT22;456;53.584;9.968;2023-02-21T02:48:21;16.20;29.70
939;DHT22;456;53.584;9.968;2023-02-21T02:50:49;16.20;29.80
939;DHT22;456;53.584;9.968;2023-02-21T02:53:18;16.20;29.90
939;DHT22;456;53.584;9.968;2023-02-21T02:58:24;16.30;29.80
939;DHT22;456;53.584;9.968;2023-02-21T03:12:16;16.20;29.80
939;DHT22;456;53.584;9.968;2023-02-21T03:15:07;16.20;29.90
939;DHT22;456;53.584;9.968;2023-02-21T03:17:39;16.20;29.90
939;DHT22;456;53.584;9.968;2023-02-21T03:20:08;16.20;29.90
939;DHT22;456;53.584;9.968;2023-02-21T03:22:36;16.20;29.80
939;DHT22;456;53.584;9.968;2023-02-21T03:25:03;16.20;29.80
939;DHT22;456;53.584;9.968;2023-02-21T03:27:30;16.20;29.90
939;DHT22;456;53.584;9.968;2023-02-21T03:29:59;16.20;30.00
939;DHT22;456;53.584;9.968;2023-02-21T03:32:30;16.20;29.90
939;DHT22;456;53.584;9.968;2023-02-21T03:34:57;16.20;29.90
939;DHT22;456;53.584;9.968;2023-02-21T03:37:35;16.20;30.00
939;DHT22;456;53.584;9.968;2023-02-21T03:40:02;16.20;30.00
939;DHT22;456;53.584;9.968;2023-02-21T03:42:28;16.20;30.00
939;DHT22;456;53.584;9.968;2023-02-21T03:44:53;16.20;30.50
939;DHT22;456;53.584;9.968;2023-02-21T03:47:19;16.20;29.80
939;DHT22;456;53.584;9.968;2023-02-21T03:49:44;16.20;30.00
939;DHT22;456;53.584;9.968;2023-02-21T03:52:11;16.20;29.90
939;DHT22;456;53.584;9.968;2023-02-21T03:54:38;16.20;29.90
939;DHT22;456;53.584;9.968;2023-02-21T03:57:04;16.20;29.80
939;DHT22;456;53.584;9.968;2023-02-21T03:59:29;16.20;29.80
939;DHT22;456;53.584;9.968;2023-02-21T04:01:55;16.20;29.80
939;DHT22;456;53.584;9.968;2023-02-21T04:04:21;16.20;30.00
939;DHT22;456;53.584;9.968;2023-02-21T04:06:46;16.20;29.90
939;DHT22;456;53.584;9.968;2023-02-21T04:09:12;16.20;29.80
939;DHT22;456;53.584;9.968;2023-02-21T04:11:37;16.20;29.80
939;DHT22;456;53.584;9.968;2023-02-21T04:14:06;16.20;29.90
939;DHT22;456;53.584;9.968;2023-02-21T04:16:32;16.20;30.00
939;DHT22;456;53.584;9.968;2023-02-21T04:18:57;16.20;29.90
939;DHT22;456;53.584;9.968;2023-02-21T04:21:23;16.20;29.90
939;DHT22;456;53.584;9.968;2023-02-21T04:23:49;16.20;29.80
939;DHT22;456;53.584;9.968;2023-02-21T04:26:14;16.20;30.00
939;DHT22;456;53.584;9.968;2023-02-21T04:28:40;16.20;29.90
939;DHT22;456;53.584;9.968;2023-02-21T04:31:05;16.20;29.90
939;DHT22;456;53.584;9.968;2023-02-21T04:33:31;16.20;29.90
939;DHT22;456;53.584;9.968;2023-02-21T04:35:57;16.20;29.80
939;DHT22;456;53.584;9.968;2023-02-21T04:38:22;16.20;29.40
939;DHT22;456;53.584;9.968;2023-02-21T04:40:48;16.30;29.00
939;DHT22;456;53.584;9.968;2023-02-21T04:43:13;16.40;28.60
939;DHT22;456;53.584;9.968;2023-02-21T04:45:39;16.40;28.50
939;DHT22;456;53.584;9.968;2023-02-21T04:48:04;16.50;28.50
939;DHT22;456;53.584;9.968;2023-02-21T04:50:30;16.60;28.40
939;DHT22;456;53.584;9.968;2023-02-21T04:52:56;16.60;28.40
939;DHT22;456;53.584;9.968;2023-02-21T04:55:21;16.60;28.30
939;DHT22;456;53.584;9.968;2023-02-21T04:57:47;16.70;28.90
939;DHT22;456;53.584;9.968;2023-02-21T05:00:14;16.70;28.30
939;DHT22;456;53.584;9.968;2023-02-21T05:02:42;16.70;28.20
939;DHT22;456;53.584;9.968;2023-02-21T05:05:08;16.70;28.20
939;DHT22;456;53.584;9.968;2023-02-21T05:07:33;16.70;28.10
939;DHT22;456;53.584;9.968;2023-02-21T05:09:59;16.70;28.10
939;DHT22;456;53.584;9.968;2023-02-21T05:12:24;16.70;28.00
939;DHT22;456;53.584;9.968;2023-02-21T05:14:50;16.70;28.00
939;DHT22;456;53.584;9.968;2023-02-21T05:17:16;16.80;28.10
939;DHT22;456;53.584;9.968;2023-02-21T05:19:41;16.80;28.00
939;DHT22;456;53.584;9.968;2023-02-21T05:22:07;16.80;28.60
939;DHT22;456;53.584;9.968;2023-02-21T05:24:33;16.80;28.00
939;DHT22;456;53.584;9.968;2023-02-21T05:26:58;16.80;28.00
939;DHT22;456;53.584;9.968;2023-02-21T05:29:24;16.80;27.90
939;DHT22;456;53.584;9.968;2023-02-21T05:31:50;16.80;28.00
939;DHT22;456;53.584;9.968;2023-02-21T05:34:16;16.80;28.10
939;DHT22;456;53.584;9.968;2023-02-21T05:36:44;16.80;28.10
939;DHT22;456;53.584;9.968;2023-02-21T05:39:10;16.80;28.10
939;DHT22;456;53.584;9.968;2023-02-21T05:41:36;16.80;28.10
939;DHT22;456;53.584;9.968;2023-02-21T05:44:02;16.80;28.00
939;DHT22;456;53.584;9.968;2023-02-21T05:46:30;16.80;28.10
939;DHT22;456;53.584;9.968;2023-02-21T05:48:57;16.80;28.10
939;DHT22;456;53.584;9.968;2023-02-21T05:51:23;16.80;28.10
939;DHT22;456;53.584;9.968;2023-02-21T05:53:50;16.80;28.10
939;DHT22;456;53.584;9.968;2023-02-21T05:56:16;16.80;28.10
939;DHT22;456;53.584;9.968;2023-02-21T05:58:42;16.80;28.10
939;DHT22;456;53.584;9.968;2023-02-21T06:01:08;16.80;28.00
939;DHT22;456;53.584;9.968;2023-02-21T06:03:34;16.80;28.10
939;DHT22;456;53.584;9.968;2023-02-21T06:06:00;16.80;28.10
939;DHT22;456;53.584;9.968;2023-02-21T06:08:25;16.80;27.90
939;DHT22;456;53.584;9.968;2023-02-21T06:10:51;16.80;28.40
939;DHT22;456;53.584;9.968;2023-02-21T06:13:17;16.80;27.90
939;DHT22;456;53.584;9.968;2023-02-21T06:15:43;16.80;27.90
939;DHT22;456;53.584;9.968;2023-02-21T06:18:11;16.80;27.80
939;DHT22;456;53.584;9.968;2023-02-21T06:20:37;16.80;27.80
939;DHT22;456;53.584;9.968;2023-02-21T06:23:03;16.80;27.80
939;DHT22;456;53.584;9.968;2023-02-21T06:25:28;16.80;27.80
939;DHT22;456;53.584;9.968;2023-02-21T06:27:54;16.80;27.80
939;DHT22;456;53.584;9.968;2023-02-21T06:30:19;16.80;27.80
939;DHT22;456;53.584;9.968;2023-02-21T06:32:45;16.80;27.80
939;DHT22;456;53.584;9.968;2023-02-21T06:35:11;16.80;27.80
939;DHT22;456;53.584;9.968;2023-02-21T06:37:36;16.80;27.80
939;DHT22;456;53.584;9.968;2023-02-21T06:40:03;16.80;27.70
939;DHT22;456;53.584;9.968;2023-02-21T06:42:29;16.80;27.60
939;DHT22;456;53.584;9.968;2023-02-21T06:44:55;16.80;27.60
939;DHT22;456;53.584;9.968;2023-02-21T06:47:20;16.80;27.60
939;DHT22;456;53.584;9.968;2023-02-21T06:49:46;16.80;27.50
939;DHT22;456;53.584;9.968;2023-02-21T06:52:11;16.80;27.60
939;DHT22;456;53.584;9.968;2023-02-21T06:54:38;16.80;27.60
939;DHT22;456;53.584;9.968;2023-02-21T06:57:03;16.80;27.60
939;DHT22;456;53.584;9.968;2023-02-21T06:59:30;16.80;27.60
939;DHT22;456;53.584;9.968;2023-02-21T07:01:56;16.80;27.60
939;DHT22;456;53.584;9.968;2023-02-21T07:04:22;16.80;27.60
939;DHT22;456;53.584;9.968;2023-02-21T07:06:48;16.80;27.60
939;DHT22;456;53.584;9.968;2023-02-21T07:09:14;16.80;27.70
939;DHT22;456;53.584;9.968;2023-02-21T07:11:39;16.80;27.70
939;DHT22;456;53.584;9.968;2023-02-21T07:14:05;16.80;27.80
939;DHT22;456;53.584;9.968;2023-02-21T07:16:31;16.80;27.80
939;DHT22;456;53.584;9.968;2023-02-21T07:18:57;16.70;27.80
939;DHT22;456;53.584;9.968;2023-02-21T07:21:22;16.70;27.80
939;DHT22;456;53.584;9.968;2023-02-21T07:23:49;16.70;27.80
939;DHT22;456;53.584;9.968;2023-02-21T07:26:15;16.70;27.80
939;DHT22;456;53.584;9.968;2023-02-21T07:28:41;16.70;27.90
939;DHT22;456;53.584;9.968;2023-02-21T07:31:06;16.70;27.90
939;DHT22;456;53.584;9.968;2023-02-21T07:33:32;16.70;28.00
939;DHT22;456;53.584;9.968;2023-02-21T07:35:58;16.70;28.00
939;DHT22;456;53.584;9.968;2023-02-21T07:38:26;16.70;28.00
939;DHT22;456;53.584;9.968;2023-02-21T07:40:56;16.70;28.00
939;DHT22;456;53.584;9.968;2023-02-21T07:43:24;16.70;28.10
939;DHT22;456;53.584;9.968;2023-02-21T07:45:50;16.70;28.00
939;DHT22;456;53.584;9.968;2023-02-21T07:48:15;16.60;28.00
939;DHT22;456;53.584;9.968;2023-02-21T07:50:41;16.60;28.10
939;DHT22;456;53.584;9.968;2023-02-21T07:53:07;16.60;28.00
939;DHT22;456;53.584;9.968;2023-02-21T07:55:33;16.60;28.00
939;DHT22;456;53.584;9.968;2023-02-21T07:57:59;16.60;28.00
939;DHT22;456;53.584;9.968;2023-02-21T08:00:25;16.60;28.10
939;DHT22;456;53.584;9.968;2023-02-21T08:02:51;16.60;28.10
939;DHT22;456;53.584;9.968;2023-02-21T08:05:18;16.60;28.10
939;DHT22;456;53.584;9.968;2023-02-21T08:07:44;16.60;28.10
939;DHT22;456;53.584;9.968;2023-02-21T08:10:10;16.60;28.10
939;DHT22;456;53.584;9.968;2023-02-21T08:12:36;16.60;28.10
939;DHT22;456;53.584;9.968;2023-02-21T08:15:02;16.60;28.10
939;DHT22;456;53.584;9.968;2023-02-21T08:17:29;16.60;28.20
939;DHT22;456;53.584;9.968;2023-02-21T08:19:55;16.60;28.20
939;DHT22;456;53.584;9.968;2023-02-21T08:22:20;16.60;28.30
939;DHT22;456;53.584;9.968;2023-02-21T08:24:49;16.60;28.30
939;DHT22;456;53.584;9.968;2023-02-21T08:27:15;16.60;28.20
939;DHT22;456;53.584;9.968;2023-02-21T08:29:40;16.60;28.20
939;DHT22;456;53.584;9.968;2023-02-21T08:32:06;16.50;28.20
939;DHT22;456;53.584;9.968;2023-02-21T08:34:32;16.60;28.20
939;DHT22;456;53.584;9.968;2023-02-21T08:36:57;16.50;28.20
939;DHT22;456;53.584;9.968;2023-02-21T08:39:23;16.50;28.20
939;DHT22;456;53.584;9.968;2023-02-21T08:41:49;16.50;28.20
939;DHT22;456;53.584;9.968;2023-02-21T08:44:17;16.50;28.20
939;DHT22;456;53.584;9.968;2023-02-21T08:46:43;16.50;28.20
939;DHT22;456;53.584;9.968;2023-02-21T08:49:09;16.50;28.20
939;DHT22;456;53.584;9.968;2023-02-21T08:51:35;16.50;28.20
939;DHT22;456;53.584;9.968;2023-02-21T08:54:01;16.50;28.20
939;DHT22;456;53.584;9.968;2023-02-21T08:56:28;16.50;28.20
939;DHT22;456;53.584;9.968;2023-02-21T08:58:55;16.50;28.20
939;DHT22;456;53.584;9.968;2023-02-21T09:01:22;16.50;28.30
939;DHT22;456;53.584;9.968;2023-02-21T09:03:48;16.50;28.30
939;DHT22;456;53.584;9.968;2023-02-21T09:06:14;16.50;28.20
939;DHT22;456;53.584;9.968;2023-02-21T09:08:40;16.50;28.30
939;DHT22;456;53.584;9.968;2023-02-21T09:11:06;16.50;28.20
939;DHT22;456;53.584;9.968;2023-02-21T09:13:32;16.50;28.30
939;DHT22;456;53.584;9.968;2023-02-21T09:15:59;16.50;28.30
939;DHT22;456;53.584;9.968;2023-02-21T09:18:26;16.50;28.30
939;DHT22;456;53.584;9.968;2023-02-21T09:20:52;16.50;28.30
939;DHT22;456;53.584;9.968;2023-02-21T09:23:22;16.50;28.30
939;DHT22;456;53.584;9.968;2023-02-21T09:25:48;16.50;28.30
939;DHT22;456;53.584;9.968;2023-02-21T09:28:15;16.50;28.30
939;DHT22;456;53.584;9.968;2023-02-21T09:30:41;16.50;28.30
939;DHT22;456;53.584;9.968;2023-02-21T09:33:08;16.40;28.20
939;DHT22;456;53.584;9.968;2023-02-21T09:35:33;16.40;28.20
939;DHT22;456;53.584;9.968;2023-02-21T09:38:00;16.40;28.30
939;DHT22;456;53.584;9.968;2023-02-21T09:43:06;16.40;28.20
939;DHT22;456;53.584;9.968;2023-02-21T09:45:35;16.40;28.20
939;DHT22;456;53.584;9.968;2023-02-21T09:48:07;16.40;28.20
939;DHT22;456;53.584;9.968;2023-02-21T09:50:40;16.40;28.20
939;DHT22;456;53.584;9.968;2023-02-21T09:53:08;16.40;28.20
939;DHT22;456;53.584;9.968;2023-02-21T09:55:38;16.40;28.20
939;DHT22;456;53.584;9.968;2023-02-21T09:58:12;16.40;28.30
939;DHT22;456;53.584;9.968;2023-02-21T10:00:38;16.40;28.20
939;DHT22;456;53.584;9.968;2023-02-21T10:08:48;16.40;28.20
939;DHT22;456;53.584;9.968;2023-02-21T10:17:21;16.40;28.20
939;DHT22;456;53.584;9.968;2023-02-21T10:19:54;16.40;28.30
939;DHT22;456;53.584;9.968;2023-02-21T10:22:30;16.40;28.30
939;DHT22;456;53.584;9.968;2023-02-21T10:24:57;16.40;28.80
939;DHT22;456;53.584;9.968;2023-02-21T10:27:26;16.40;28.30
939;DHT22;456;53.584;9.968;2023-02-21T10:30:03;16.40;28.30
939;DHT22;456;53.584;9.968;2023-02-21T10:32:29;16.40;28.40
939;DHT22;456;53.584;9.968;2023-02-21T10:34:56;16.40;28.40
939;DHT22;456;53.584;9.968;2023-02-21T10:42:55;16.40;28.30
939;DHT22;456;53.584;9.968;2023-02-21T10:45:29;16.40;28.30
939;DHT22;456;53.584;9.968;2023-02-21T10:48:04;16.40;28.40
939;DHT22;456;53.584;9.968;2023-02-21T10:50:49;16.40;28.40
939;DHT22;456;53.584;9.968;2023-02-21T10:53:30;16.40;28.40
939;DHT22;456;53.584;9.968;2023-02-21T10:58:58;16.40;28.40
939;DHT22;456;53.584;9.968;2023-02-21T11:03:54;16.40;28.50
939;DHT22;456;53.584;9.968;2023-02-21T11:06:38;16.30;28.40
939;DHT22;456;53.584;9.968;2023-02-21T11:09:44;16.40;28.50
939;DHT22;456;53.584;9.968;2023-02-21T11:12:20;16.30;28.40
939;DHT22;456;53.584;9.968;2023-02-21T11:17:25;16.30;28.40
939;DHT22;456;53.584;9.968;2023-02-21T11:20:16;16.30;28.50
939;DHT22;456;53.584;9.968;2023-02-21T11:22:44;16.30;28.50
939;DHT22;456;53.584;9.968;2023-02-21T11:27:58;16.30;28.50
939;DHT22;456;53.584;9.968;2023-02-21T11:30:24;16.30;29.00
939;DHT22;456;53.584;9.968;2023-02-21T11:32:54;16.30;28.40
939;DHT22;456;53.584;9.968;2023-02-21T11:35:29;16.30;28.40
939;DHT22;456;53.584;9.968;2023-02-21T11:38:03;16.30;28.50
939;DHT22;456;53.584;9.968;2023-02-21T11:40:49;16.30;28.50
939;DHT22;456;53.584;9.968;2023-02-21T11:43:27;16.30;28.50
939;DHT22;456;53.584;9.968;2023-02-21T11:49:00;16.30;28.50
939;DHT22;456;53.584;9.968;2023-02-21T11:51:44;16.30;28.40
939;DHT22;456;53.584;9.968;2023-02-21T11:54:11;16.30;28.50
939;DHT22;456;53.584;9.968;2023-02-21T11:57:01;16.30;28.50
939;DHT22;456;53.584;9.968;2023-02-21T11:59:30;16.30;28.50
939;DHT22;456;53.584;9.968;2023-02-21T12:04:38;16.30;28.50
939;DHT22;456;53.584;9.968;2023-02-21T12:09:52;16.30;28.50
939;DHT22;456;53.584;9.968;2023-02-21T12:14:57;16.30;28.50
939;DHT22;456;53.584;9.968;2023-02-21T12:23:21;16.30;28.60
939;DHT22;456;53.584;9.968;2023-02-21T12:29:06;16.30;28.60
939;DHT22;456;53.584;9.968;2023-02-21T12:37:24;16.30;28.80
939;DHT22;456;53.584;9.968;2023-02-21T12:40:19;16.30;28.60
939;DHT22;456;53.584;9.968;2023-02-21T12:48:44;16.30;28.60
939;DHT22;456;53.584;9.968;2023-02-21T12:51:19;16.30;28.60
939;DHT22;456;53.584;9.968;2023-02-21T12:54:05;16.30;29.10
939;DHT22;456;53.584;9.968;2023-02-21T13:02:09;16.30;28.60
939;DHT22;456;53.584;9.968;2023-02-21T13:04:58;16.30;28.60
939;DHT22;456;53.584;9.968;2023-02-21T13:07:49;16.30;28.60
939;DHT22;456;53.584;9.968;2023-02-21T13:10:27;16.30;28.60
939;DHT22;456;53.584;9.968;2023-02-21T13:13:11;16.30;28.70
939;DHT22;456;53.584;9.968;2023-02-21T13:15:40;16.30;28.60
939;DHT22;456;53.584;9.968;2023-02-21T13:18:07;16.30;28.60
939;DHT22;456;53.584;9.968;2023-02-21T13:20:52;16.30;28.60
939;DHT22;456;53.584;9.968;2023-02-21T13:26:45;16.30;28.60
939;DHT22;456;53.584;9.968;2023-02-21T13:29:25;16.30;28.60
939;DHT22;456;53.584;9.968;2023-02-21T13:32:05;16.30;28.60
939;DHT22;456;53.584;9.968;2023-02-21T13:35:21;16.30;28.60
939;DHT22;456;53.584;9.968;2023-02-21T13:37:27;16.30;28.60
939;DHT22;456;53.584;9.968;2023-02-21T13:40:06;16.30;28.60
939;DHT22;456;53.584;9.968;2023-02-21T13:42:41;16.30;28.60
939;DHT22;456;53.584;9.968;2023-02-21T13:45:24;16.30;28.50
939;DHT22;456;53.584;9.968;2023-02-21T13:48:17;16.30;28.20
939;DHT22;456;53.584;9.968;2023-02-21T13:50:48;16.40;27.80
939;DHT22;456;53.584;9.968;2023-02-21T13:58:37;16.60;27.60
939;DHT22;456;53.584;9.968;2023-02-21T14:01:19;16.70;27.60
939;DHT22;456;53.584;9.968;2023-02-21T14:03:51;16.70;27.60
939;DHT22;456;53.584;9.968;2023-02-21T14:06:31;16.80;27.60
939;DHT22;456;53.584;9.968;2023-02-21T14:09:06;16.80;27.50
939;DHT22;456;53.584;9.968;2023-02-21T14:11:36;16.90;27.50
939;DHT22;456;53.584;9.968;2023-02-21T14:14:27;16.90;27.50
939;DHT22;456;53.584;9.968;2023-02-21T14:17:03;16.90;27.40
939;DHT22;456;53.584;9.968;2023-02-21T14:19:45;16.90;27.40
939;DHT22;456;53.584;9.968;2023-02-21T14:22:23;16.90;27.30
939;DHT22;456;53.584;9.968;2023-02-21T14:24:51;16.90;27.30
939;DHT22;456;53.584;9.968;2023-02-21T14:27:29;16.90;27.30
939;DHT22;456;53.584;9.968;2023-02-21T14:30:26;16.90;27.20
939;DHT22;456;53.584;9.968;2023-02-21T14:33:06;16.90;27.20
939;DHT22;456;53.584;9.968;2023-02-21T14:35:42;16.90;27.20
939;DHT22;456;53.584;9.968;2023-02-21T14:38:37;16.90;27.20
939;DHT22;456;53.584;9.968;2023-02-21T14:41:39;16.90;27.20
939;DHT22;456;53.584;9.968;2023-02-21T14:49:58;16.90;27.20
939;DHT22;456;53.584;9.968;2023-02-21T15:07:16;16.80;27.20
939;DHT22;456;53.584;9.968;2023-02-21T15:09:44;16.90;27.20
939;DHT22;456;53.584;9.968;2023-02-21T15:12:15;16.90;27.20
939;DHT22;456;53.584;9.968;2023-02-21T15:14:49;16.80;27.20
939;DHT22;456;53.584;9.968;2023-02-21T15:17:21;16.90;27.20
939;DHT22;456;53.584;9.968;2023-02-21T15:20:01;16.90;27.20
939;DHT22;456;53.584;9.968;2023-02-21T15:22:29;16.90;27.20
939;DHT22;456;53.584;9.968;2023-02-21T15:27:59;16.90;27.20
939;DHT22;456;53.584;9.968;2023-02-21T15:30:41;16.90;27.20
939;DHT22;456;53.584;9.968;2023-02-21T15:33:20;16.90;27.20
939;DHT22;456;53.584;9.968;2023-02-21T15:38:43;16.80;27.20
939;DHT22;456;53.584;9.968;2023-02-21T15:43:54;16.90;27.20
939;DHT22;456;53.584;9.968;2023-02-21T15:46:26;16.90;27.20
939;DHT22;456;53.584;9.968;2023-02-21T15:48:55;16.90;27.20
939;DHT22;456;53.584;9.968;2023-02-21T15:51:21;16.90;27.20
939;DHT22;456;53.584;9.968;2023-02-21T15:54:19;16.90;27.20
939;DHT22;456;53.584;9.968;2023-02-21T15:56:45;16.90;27.20
939;DHT22;456;53.584;9.968;2023-02-21T15:59:15;16.90;27.20
939;DHT22;456;53.584;9.968;2023-02-21T16:01:41;16.90;27.20
939;DHT22;456;53.584;9.968;2023-02-21T16:04:21;16.90;27.20
939;DHT22;456;53.584;9.968;2023-02-21T16:06:50;16.90;27.20
939;DHT22;456;53.584;9.968;2023-02-21T16:09:20;16.90;27.20
939;DHT22;456;53.584;9.968;2023-02-21T16:14:56;16.90;27.20
939;DHT22;456;53.584;9.968;2023-02-21T16:17:39;17.00;27.30
939;DHT22;456;53.584;9.968;2023-02-21T16:22:38;17.00;27.30
939;DHT22;456;53.584;9.968;2023-02-21T16:25:12;16.90;27.20
939;DHT22;456;53.584;9.968;2023-02-21T16:27:47;16.90;27.20
939;DHT22;456;53.584;9.968;2023-02-21T16:30:23;16.90;27.20
939;DHT22;456;53.584;9.968;2023-02-21T16:32:52;16.90;27.20
939;DHT22;456;53.584;9.968;2023-02-21T16:35:23;17.00;27.30
939;DHT22;456;53.584;9.968;2023-02-21T16:37:52;17.00;27.30
939;DHT22;456;53.584;9.968;2023-02-21T16:40:22;17.00;27.30
939;DHT22;456;53.584;9.968;2023-02-21T16:42:50;17.00;27.30
939;DHT22;456;53.584;9.968;2023-02-21T16:45:16;16.90;27.20
939;DHT22;456;53.584;9.968;2023-02-21T16:47:42;17.00;27.40
939;DHT22;456;53.584;9.968;2023-02-21T16:50:33;16.90;27.20
939;DHT22;456;53.584;9.968;2023-02-21T16:53:00;16.90;27.20
939;DHT22;456;53.584;9.968;2023-02-21T16:55:26;16.90;27.30
939;DHT22;456;53.584;9.968;2023-02-21T16:57:57;16.90;27.50
939;DHT22;456;53.584;9.968;2023-02-21T17:00:23;16.90;27.50
939;DHT22;456;53.584;9.968;2023-02-21T17:02:50;16.90;27.60
939;DHT22;456;53.584;9.968;2023-02-21T17:05:17;16.90;27.70
939;DHT22;456;53.584;9.968;2023-02-21T17:07:42;16.90;27.70
939;DHT22;456;53.584;9.968;2023-02-21T17:10:09;16.90;27.60
939;DHT22;456;53.584;9.968;2023-02-21T17:12:35;16.90;27.50
939;DHT22;456;53.584;9.968;2023-02-21T17:15:01;16.90;27.50
939;DHT22;456;53.584;9.968;2023-02-21T17:17:27;16.90;27.40
939;DHT22;456;53.584;9.968;2023-02-21T17:19:53;16.90;27.30
939;DHT22;456;53.584;9.968;2023-02-21T17:22:18;17.00;27.40
939;DHT22;456;53.584;9.968;2023-02-21T17:24:44;17.00;27.30
939;DHT22;456;53.584;9.968;2023-02-21T17:27:10;17.00;27.30
939;DHT22;456;53.584;9.968;2023-02-21T17:29:35;17.00;27.40
939;DHT22;456;53.584;9.968;2023-02-21T17:32:02;17.00;27.30
939;DHT22;456;53.584;9.968;2023-02-21T17:34:32;17.00;27.30
939;DHT22;456;53.584;9.968;2023-02-21T17:36:58;17.00;27.30
939;DHT22;456;53.584;9.968;2023-02-21T17:39:23;17.00;27.30
939;DHT22;456;53.584;9.968;2023-02-21T17:41:50;17.00;27.30
939;DHT22;456;53.584;9.968;2023-02-21T17:44:17;17.00;27.30
939;DHT22;456;53.584;9.968;2023-02-21T17:47:01;17.00;27.30
939;DHT22;456;53.584;9.968;2023-02-21T17:49:27;17.00;27.30
939;DHT22;456;53.584;9.968;2023-02-21T17:51:53;17.00;27.30
939;DHT22;456;53.584;9.968;2023-02-21T17:54:21;17.00;27.30
939;DHT22;456;53.584;9.968;2023-02-21T17:56:48;17.00;27.30
939;DHT22;456;53.584;9.968;2023-02-21T17:59:14;17.00;27.30
939;DHT22;456;53.584;9.968;2023-02-21T18:01:40;17.00;27.30
939;DHT22;456;53.584;9.968;2023-02-21T18:04:07;17.00;27.30
939;DHT22;456;53.584;9.968;2023-02-21T18:06:33;17.00;27.30
939;DHT22;456;53.584;9.968;2023-02-21T18:08:59;17.00;27.90
939;DHT22;456;53.584;9.968;2023-02-21T18:11:26;17.00;27.30
939;DHT22;456;53.584;9.968;2023-02-21T18:13:52;17.00;27.30
939;DHT22;456;53.584;9.968;2023-02-21T18:16:19;17.00;27.30
939;DHT22;456;53.584;9.968;2023-02-21T18:18:45;16.90;27.20
939;DHT22;456;53.584;9.968;2023-02-21T18:21:10;16.90;27.20
939;DHT22;456;53.584;9.968;2023-02-21T18:23:36;16.90;27.20
939;DHT22;456;53.584;9.968;2023-02-21T18:26:03;16.90;27.20
939;DHT22;456;53.584;9.968;2023-02-21T18:28:29;17.00;27.30
939;DHT22;456;53.584;9.968;2023-02-21T18:30:55;16.90;27.20
939;DHT22;456;53.584;9.968;2023-02-21T18:33:23;17.00;27.30
939;DHT22;456;53.584;9.968;2023-02-21T18:35:49;17.00;27.30
939;DHT22;456;53.584;9.968;2023-02-21T18:38:15;17.00;27.30
939;DHT22;456;53.584;9.968;2023-02-21T18:40:44;17.00;27.30
939;DHT22;456;53.584;9.968;2023-02-21T18:43:17;17.00;27.30
939;DHT22;456;53.584;9.968;2023-02-21T18:45:45;17.10;27.30
939;DHT22;456;53.584;9.968;2023-02-21T18:48:11;17.10;27.30
939;DHT22;456;53.584;9.968;2023-02-21T18:50:37;17.10;27.30
939;DHT22;456;53.584;9.968;2023-02-21T18:53:03;17.10;27.40
939;DHT22;456;53.584;9.968;2023-02-21T18:55:30;17.10;27.30
939;DHT22;456;53.584;9.968;2023-02-21T18:57:56;17.10;27.30
939;DHT22;456;53.584;9.968;2023-02-21T19:00:22;17.10;27.30
939;DHT22;456;53.584;9.968;2023-02-21T19:02:48;17.10;27.40
939;DHT22;456;53.584;9.968;2023-02-21T19:05:16;17.10;27.30
939;DHT22;456;53.584;9.968;2023-02-21T19:07:43;17.10;27.50
939;DHT22;456;53.584;9.968;2023-02-21T19:10:10;17.10;27.30
939;DHT22;456;53.584;9.968;2023-02-21T19:12:36;17.10;27.30
939;DHT22;456;53.584;9.968;2023-02-21T19:15:02;17.10;27.40
939;DHT22;456;53.584;9.968;2023-02-21T19:17:28;17.00;27.30
939;DHT22;456;53.584;9.968;2023-02-21T19:19:54;17.00;27.30
939;DHT22;456;53.584;9.968;2023-02-21T19:22:20;17.00;27.30
939;DHT22;456;53.584;9.968;2023-02-21T19:24:45;17.00;27.30
939;DHT22;456;53.584;9.968;2023-02-21T19:27:11;17.00;27.30
939;DHT22;456;53.584;9.968;2023-02-21T19:29:37;17.00;27.30
939;DHT22;456;53.584;9.968;2023-02-21T19:32:02;17.00;27.30
939;DHT22;456;53.584;9.968;2023-02-21T19:34:28;17.00;27.30
939;DHT22;456;53.584;9.968;2023-02-21T19:36:54;17.00;27.30